sensor_id;sensor_type;location;lat;lon;timestamp;temperature;humidity
75451;DHT22;64029;48.244;9.188;2023-10-08T00:02:23;8.70;68.60
75451;DHT22;64029;48.244;9.188;2023-10-08T00:04:52;8.70;68.70
75451;DHT22;64029;48.244;9.188;2023-10-08T00:07:20;8.60;68.70
75451;DHT22;64029;48.244;9.188;2023-10-08T00:09:50;8.70;68.60
75451;DHT22;64029;48.244;9.188;2023-10-08T00:12:18;8.60;68.50
75451;DHT22;64029;48.244;9.188;2023-10-08T00:14:46;8.60;68.60
75451;DHT22;64029;48.244;9.188;2023-10-08T00:17:15;8.60;68.80
75451;DHT22;64029;48.244;9.188;2023-10-08T00:19:42;8.50;69.10
75451;DHT22;64029;48.244;9.188;2023-10-08T00:22:09;8.50;69.50
75451;DHT22;64029;48.244;9.188;2023-10-08T00:24:38;8.40;69.40
75451;DHT22;64029;48.244;9.188;2023-10-08T00:27:09;8.40;69.40
75451;DHT22;64029;48.244;9.188;2023-10-08T00:29:36;8.40;69.20
75451;DHT22;64029;48.244;9.188;2023-10-08T00:32:08;8.40;69.30
75451;DHT22;64029;48.244;9.188;2023-10-08T00:34:38;8.40;69.50
75451;DHT22;64029;48.244;9.188;2023-10-08T00:37:08;8.40;69.30
75451;DHT22;64029;48.244;9.188;2023-10-08T00:39:36;8.40;69.10
75451;DHT22;64029;48.244;9.188;2023-10-08T00:42:07;8.40;69.10
75451;DHT22;64029;48.244;9.188;2023-10-08T00:44:35;8.30;69.30
75451;DHT22;64029;48.244;9.188;2023-10-08T00:47:13;8.30;69.50
75451;DHT22;64029;48.244;9.188;2023-10-08T00:49:41;8.30;69.60
75451;DHT22;64029;48.244;9.188;2023-10-08T00:52:30;8.30;69.30
75451;DHT22;64029;48.244;9.188;2023-10-08T00:55:05;8.30;69.50
75451;DHT22;64029;48.244;9.188;2023-10-08T00:57:52;8.20;69.50
75451;DHT22;64029;48.244;9.188;2023-10-08T01:00:23;8.20;69.70
75451;DHT22;64029;48.244;9.188;2023-10-08T01:02:58;8.20;69.80
75451;DHT22;64029;48.244;9.188;2023-10-08T01:05:26;8.20;70.00
75451;DHT22;64029;48.244;9.188;2023-10-08T01:08:08;8.20;70.20
75451;DHT22;64029;48.244;9.188;2023-10-08T01:10:38;8.10;70.00
75451;DHT22;64029;48.244;9.188;2023-10-08T01:13:07;8.10;70.00
75451;DHT22;64029;48.244;9.188;2023-10-08T01:15:40;8.10;70.10
75451;DHT22;64029;48.244;9.188;2023-10-08T01:18:10;8.10;70.20
75451;DHT22;64029;48.244;9.188;2023-10-08T01:20:41;8.10;70.30
75451;DHT22;64029;48.244;9.188;2023-10-08T01:23:19;8.00;70.30
75451;DHT22;64029;48.244;9.188;2023-10-08T01:25:49;8.00;70.70
75451;DHT22;64029;48.244;9.188;2023-10-08T01:28:18;8.00;70.60
75451;DHT22;64029;48.244;9.188;2023-10-08T01:30:51;8.00;70.60
75451;DHT22;64029;48.244;9.188;2023-10-08T01:33:19;8.00;70.80
75451;DHT22;64029;48.244;9.188;2023-10-08T01:35:54;7.90;71.00
75451;DHT22;64029;48.244;9.188;2023-10-08T01:38:28;7.90;70.80
75451;DHT22;64029;48.244;9.188;2023-10-08T01:40:56;7.90;70.60
75451;DHT22;64029;48.244;9.188;2023-10-08T01:43:28;7.90;70.90
75451;DHT22;64029;48.244;9.188;2023-10-08T01:45:55;7.90;70.80
75451;DHT22;64029;48.244;9.188;2023-10-08T01:48:22;7.80;70.70
75451;DHT22;64029;48.244;9.188;2023-10-08T01:50:54;7.80;70.70
75451;DHT22;64029;48.244;9.188;2023-10-08T01:53:21;7.80;70.90
75451;DHT22;64029;48.244;9.188;2023-10-08T01:55:49;7.80;70.90
75451;DHT22;64029;48.244;9.188;2023-10-08T01:58:18;7.80;70.70
75451;DHT22;64029;48.244;9.188;2023-10-08T02:00:46;7.80;71.00
75451;DHT22;64029;48.244;9.188;2023-10-08T02:03:13;7.70;71.10
75451;DHT22;64029;48.244;9.188;2023-10-08T02:05:42;7.70;71.20
75451;DHT22;64029;48.244;9.188;2023-10-08T02:08:09;7.70;71.40
75451;DHT22;64029;48.244;9.188;2023-10-08T02:10:37;7.70;71.40
75451;DHT22;64029;48.244;9.188;2023-10-08T02:13:06;7.70;71.50
75451;DHT22;64029;48.244;9.188;2023-10-08T02:15:35;7.70;71.20
75451;DHT22;64029;48.244;9.188;2023-10-08T02:18:02;7.70;71.30
75451;DHT22;64029;48.244;9.188;2023-10-08T02:20:30;7.60;71.60
75451;DHT22;64029;48.244;9.188;2023-10-08T02:22:56;7.60;71.80
75451;DHT22;64029;48.244;9.188;2023-10-08T02:25:25;7.60;71.70
75451;DHT22;64029;48.244;9.188;2023-10-08T02:27:52;7.60;71.70
75451;DHT22;64029;48.244;9.188;2023-10-08T02:30:20;7.60;71.40
75451;DHT22;64029;48.244;9.188;2023-10-08T02:32:47;7.50;71.60
75451;DHT22;64029;48.244;9.188;2023-10-08T02:35:15;7.50;71.60
75451;DHT22;64029;48.244;9.188;2023-10-08T02:37:41;7.50;71.70
75451;DHT22;64029;48.244;9.188;2023-10-08T02:40:11;7.50;71.50
75451;DHT22;64029;48.244;9.188;2023-10-08T02:42:45;7.50;71.60
75451;DHT22;64029;48.244;9.188;2023-10-08T02:45:13;7.50;71.90
75451;DHT22;64029;48.244;9.188;2023-10-08T02:47:42;7.50;72.00
75451;DHT22;64029;48.244;9.188;2023-10-08T02:50:10;7.50;72.00
75451;DHT22;64029;48.244;9.188;2023-10-08T02:52:37;7.40;71.90
75451;DHT22;64029;48.244;9.188;2023-10-08T02:55:05;7.40;72.00
75451;DHT22;64029;48.244;9.188;2023-10-08T02:57:44;7.40;71.90
75451;DHT22;64029;48.244;9.188;2023-10-08T03:00:11;7.40;72.10
75451;DHT22;64029;48.244;9.188;2023-10-08T03:02:40;7.40;72.10
75451;DHT22;64029;48.244;9.188;2023-10-08T03:05:08;7.40;71.90
75451;DHT22;64029;48.244;9.188;2023-10-08T03:07:39;7.30;71.60
75451;DHT22;64029;48.244;9.188;2023-10-08T03:10:06;7.30;72.20
75451;DHT22;64029;48.244;9.188;2023-10-08T03:12:43;7.30;72.70
75451;DHT22;64029;48.244;9.188;2023-10-08T03:15:12;7.30;72.40
75451;DHT22;64029;48.244;9.188;2023-10-08T03:17:40;7.30;72.20
75451;DHT22;64029;48.244;9.188;2023-10-08T03:20:15;7.30;72.20
75451;DHT22;64029;48.244;9.188;2023-10-08T03:22:55;7.30;72.40
75451;DHT22;64029;48.244;9.188;2023-10-08T03:25:23;7.30;72.00
75451;DHT22;64029;48.244;9.188;2023-10-08T03:27:52;7.20;71.90
75451;DHT22;64029;48.244;9.188;2023-10-08T03:30:20;7.30;71.80
75451;DHT22;64029;48.244;9.188;2023-10-08T03:32:47;7.20;71.70
75451;DHT22;64029;48.244;9.188;2023-10-08T03:35:21;7.20;71.90
75451;DHT22;64029;48.244;9.188;2023-10-08T03:37:53;7.20;71.70
75451;DHT22;64029;48.244;9.188;2023-10-08T03:40:40;7.20;71.50
75451;DHT22;64029;48.244;9.188;2023-10-08T03:43:09;7.20;71.50
75451;DHT22;64029;48.244;9.188;2023-10-08T03:45:48;7.20;71.40
75451;DHT22;64029;48.244;9.188;2023-10-08T03:48:19;7.20;71.90
75451;DHT22;64029;48.244;9.188;2023-10-08T03:50:49;7.20;72.00
75451;DHT22;64029;48.244;9.188;2023-10-08T03:53:22;7.20;71.80
75451;DHT22;64029;48.244;9.188;2023-10-08T03:55:50;7.20;71.90
75451;DHT22;64029;48.244;9.188;2023-10-08T03:58:20;7.20;71.70
75451;DHT22;64029;48.244;9.188;2023-10-08T04:00:54;7.20;72.20
75451;DHT22;64029;48.244;9.188;2023-10-08T04:03:33;7.20;71.90
75451;DHT22;64029;48.244;9.188;2023-10-08T04:06:24;7.20;72.00
75451;DHT22;64029;48.244;9.188;2023-10-08T04:08:56;7.20;72.00
75451;DHT22;64029;48.244;9.188;2023-10-08T04:11:42;7.20;71.80
75451;DHT22;64029;48.244;9.188;2023-10-08T04:14:29;7.20;72.30
75451;DHT22;64029;48.244;9.188;2023-10-08T04:16:56;7.20;72.30
75451;DHT22;64029;48.244;9.188;2023-10-08T04:19:24;7.20;72.60
75451;DHT22;64029;48.244;9.188;2023-10-08T04:21:54;7.20;72.30
75451;DHT22;64029;48.244;9.188;2023-10-08T04:24:23;7.20;71.90
75451;DHT22;64029;48.244;9.188;2023-10-08T04:27:00;7.20;72.40
75451;DHT22;64029;48.244;9.188;2023-10-08T04:29:28;7.20;72.10
75451;DHT22;64029;48.244;9.188;2023-10-08T04:31:58;7.20;72.30
75451;DHT22;64029;48.244;9.188;2023-10-08T04:34:33;7.20;73.00
75451;DHT22;64029;48.244;9.188;2023-10-08T04:37:02;7.20;73.70
75451;DHT22;64029;48.244;9.188;2023-10-08T04:39:30;7.20;74.30
75451;DHT22;64029;48.244;9.188;2023-10-08T04:42:00;7.20;74.10
75451;DHT22;64029;48.244;9.188;2023-10-08T04:44:32;7.20;73.30
75451;DHT22;64029;48.244;9.188;2023-10-08T04:46:59;7.20;73.60
75451;DHT22;64029;48.244;9.188;2023-10-08T04:49:31;7.20;73.40
75451;DHT22;64029;48.244;9.188;2023-10-08T04:52:01;7.10;73.60
75451;DHT22;64029;48.244;9.188;2023-10-08T04:54:34;7.10;73.30
75451;DHT22;64029;48.244;9.188;2023-10-08T04:57:06;7.10;73.20
75451;DHT22;64029;48.244;9.188;2023-10-08T04:59:41;7.10;73.00
75451;DHT22;64029;48.244;9.188;2023-10-08T05:02:09;7.10;73.40
75451;DHT22;64029;48.244;9.188;2023-10-08T05:04:46;7.10;73.20
75451;DHT22;64029;48.244;9.188;2023-10-08T05:07:33;7.10;73.90
75451;DHT22;64029;48.244;9.188;2023-10-08T05:10:17;7.10;73.90
75451;DHT22;64029;48.244;9.188;2023-10-08T05:13:01;7.10;73.00
75451;DHT22;64029;48.244;9.188;2023-10-08T05:15:41;7.10;72.80
75451;DHT22;64029;48.244;9.188;2023-10-08T05:18:15;7.10;73.00
75451;DHT22;64029;48.244;9.188;2023-10-08T05:20:49;7.10;72.90
75451;DHT22;64029;48.244;9.188;2023-10-08T05:23:43;7.10;73.00
75451;DHT22;64029;48.244;9.188;2023-10-08T05:26:19;7.10;73.00
75451;DHT22;64029;48.244;9.188;2023-10-08T05:28:58;7.00;73.00
75451;DHT22;64029;48.244;9.188;2023-10-08T05:31:48;7.00;73.00
75451;DHT22;64029;48.244;9.188;2023-10-08T05:34:25;7.10;73.30
75451;DHT22;64029;48.244;9.188;2023-10-08T05:36:58;7.00;73.50
75451;DHT22;64029;48.244;9.188;2023-10-08T05:39:43;7.10;73.30
75451;DHT22;64029;48.244;9.188;2023-10-08T05:42:20;7.00;73.40
75451;DHT22;64029;48.244;9.188;2023-10-08T05:44:57;7.00;74.10
75451;DHT22;64029;48.244;9.188;2023-10-08T05:47:39;7.00;73.30
75451;DHT22;64029;48.244;9.188;2023-10-08T05:50:17;7.00;73.10
75451;DHT22;64029;48.244;9.188;2023-10-08T05:53:04;7.00;73.20
75451;DHT22;64029;48.244;9.188;2023-10-08T05:55:42;7.00;73.40
75451;DHT22;64029;48.244;9.188;2023-10-08T05:58:13;6.90;74.10
75451;DHT22;64029;48.244;9.188;2023-10-08T06:00:40;6.90;73.70
75451;DHT22;64029;48.244;9.188;2023-10-08T06:03:30;7.00;74.70
75451;DHT22;64029;48.244;9.188;2023-10-08T06:06:03;6.90;74.30
75451;DHT22;64029;48.244;9.188;2023-10-08T06:08:44;7.00;74.40
75451;DHT22;64029;48.244;9.188;2023-10-08T06:11:48;7.00;75.30
75451;DHT22;64029;48.244;9.188;2023-10-08T06:14:35;7.00;74.90
75451;DHT22;64029;48.244;9.188;2023-10-08T06:17:58;7.00;74.30
75451;DHT22;64029;48.244;9.188;2023-10-08T06:20:30;7.00;75.00
75451;DHT22;64029;48.244;9.188;2023-10-08T06:22:55;7.00;75.00
75451;DHT22;64029;48.244;9.188;2023-10-08T06:25:28;7.00;74.60
75451;DHT22;64029;48.244;9.188;2023-10-08T06:27:56;7.00;74.60
75451;DHT22;64029;48.244;9.188;2023-10-08T06:30:23;7.00;74.50
75451;DHT22;64029;48.244;9.188;2023-10-08T06:32:55;7.00;74.40
75451;DHT22;64029;48.244;9.188;2023-10-08T06:35:23;7.10;74.60
75451;DHT22;64029;48.244;9.188;2023-10-08T06:37:54;7.10;74.60
75451;DHT22;64029;48.244;9.188;2023-10-08T06:40:25;7.10;74.80
75451;DHT22;64029;48.244;9.188;2023-10-08T06:43:11;7.20;75.70
75451;DHT22;64029;48.244;9.188;2023-10-08T06:45:40;7.20;74.80
75451;DHT22;64029;48.244;9.188;2023-10-08T06:48:08;7.20;74.50
75451;DHT22;64029;48.244;9.188;2023-10-08T06:50:36;7.30;75.00
75451;DHT22;64029;48.244;9.188;2023-10-08T06:53:04;7.30;75.10
75451;DHT22;64029;48.244;9.188;2023-10-08T06:55:33;7.30;74.80
75451;DHT22;64029;48.244;9.188;2023-10-08T06:58:01;7.40;74.80
75451;DHT22;64029;48.244;9.188;2023-10-08T07:00:31;7.40;74.70
75451;DHT22;64029;48.244;9.188;2023-10-08T07:03:06;7.50;74.60
75451;DHT22;64029;48.244;9.188;2023-10-08T07:05:37;7.50;74.50
75451;DHT22;64029;48.244;9.188;2023-10-08T07:08:07;7.60;74.50
75451;DHT22;64029;48.244;9.188;2023-10-08T07:10:34;7.60;74.70
75451;DHT22;64029;48.244;9.188;2023-10-08T07:13:01;7.70;74.50
75451;DHT22;64029;48.244;9.188;2023-10-08T07:15:30;7.70;74.30
75451;DHT22;64029;48.244;9.188;2023-10-08T07:17:56;7.80;74.40
75451;DHT22;64029;48.244;9.188;2023-10-08T07:20:23;7.80;74.50
75451;DHT22;64029;48.244;9.188;2023-10-08T07:22:51;7.90;74.60
75451;DHT22;64029;48.244;9.188;2023-10-08T07:25:21;7.90;74.60
75451;DHT22;64029;48.244;9.188;2023-10-08T07:27:47;8.00;74.60
75451;DHT22;64029;48.244;9.188;2023-10-08T07:30:15;8.00;74.40
75451;DHT22;64029;48.244;9.188;2023-10-08T07:32:52;8.10;74.70
75451;DHT22;64029;48.244;9.188;2023-10-08T07:35:20;8.10;74.70
75451;DHT22;64029;48.244;9.188;2023-10-08T07:37:53;8.20;74.80
75451;DHT22;64029;48.244;9.188;2023-10-08T07:40:21;8.20;74.80
75451;DHT22;64029;48.244;9.188;2023-10-08T07:42:53;8.30;74.80
75451;DHT22;64029;48.244;9.188;2023-10-08T07:45:20;8.30;74.60
75451;DHT22;64029;48.244;9.188;2023-10-08T07:47:47;8.40;75.00
75451;DHT22;64029;48.244;9.188;2023-10-08T07:50:14;8.40;74.50
75451;DHT22;64029;48.244;9.188;2023-10-08T07:52:41;8.50;74.70
75451;DHT22;64029;48.244;9.188;2023-10-08T07:55:12;8.50;74.50
75451;DHT22;64029;48.244;9.188;2023-10-08T07:57:43;8.60;74.80
75451;DHT22;64029;48.244;9.188;2023-10-08T08:00:11;8.60;74.80
75451;DHT22;64029;48.244;9.188;2023-10-08T08:02:48;8.70;74.80
75451;DHT22;64029;48.244;9.188;2023-10-08T08:05:15;8.70;75.30
75451;DHT22;64029;48.244;9.188;2023-10-08T08:07:43;8.80;75.20
75451;DHT22;64029;48.244;9.188;2023-10-08T08:10:12;8.90;75.40
75451;DHT22;64029;48.244;9.188;2023-10-08T08:12:39;8.90;76.60
75451;DHT22;64029;48.244;9.188;2023-10-08T08:15:07;9.00;76.00
75451;DHT22;64029;48.244;9.188;2023-10-08T08:17:41;9.20;80.40
75451;DHT22;64029;48.244;9.188;2023-10-08T08:20:08;9.20;80.10
75451;DHT22;64029;48.244;9.188;2023-10-08T08:22:44;9.30;78.80
75451;DHT22;64029;48.244;9.188;2023-10-08T08:25:16;9.40;79.40
75451;DHT22;64029;48.244;9.188;2023-10-08T08:27:59;9.50;81.40
75451;DHT22;64029;48.244;9.188;2023-10-08T08:30:26;9.60;80.60
75451;DHT22;64029;48.244;9.188;2023-10-08T08:32:53;9.60;79.70
75451;DHT22;64029;48.244;9.188;2023-10-08T08:35:21;9.60;79.50
75451;DHT22;64029;48.244;9.188;2023-10-08T08:37:49;9.70;80.00
75451;DHT22;64029;48.244;9.188;2023-10-08T08:40:18;9.90;80.80
75451;DHT22;64029;48.244;9.188;2023-10-08T08:42:48;10.10;83.20
75451;DHT22;64029;48.244;9.188;2023-10-08T08:45:19;10.30;81.30
75451;DHT22;64029;48.244;9.188;2023-10-08T08:47:46;10.30;81.50
75451;DHT22;64029;48.244;9.188;2023-10-08T08:50:13;10.50;83.90
75451;DHT22;64029;48.244;9.188;2023-10-08T08:52:40;10.70;82.30
75451;DHT22;64029;48.244;9.188;2023-10-08T08:55:08;10.90;83.70
75451;DHT22;64029;48.244;9.188;2023-10-08T08:57:41;10.90;83.60
75451;DHT22;64029;48.244;9.188;2023-10-08T09:00:11;11.10;84.80
75451;DHT22;64029;48.244;9.188;2023-10-08T09:02:40;11.20;85.10
75451;DHT22;64029;48.244;9.188;2023-10-08T09:05:08;11.40;86.60
75451;DHT22;64029;48.244;9.188;2023-10-08T09:07:56;11.60;86.30
75451;DHT22;64029;48.244;9.188;2023-10-08T09:10:24;11.90;86.80
75451;DHT22;64029;48.244;9.188;2023-10-08T09:12:56;12.00;84.70
75451;DHT22;64029;48.244;9.188;2023-10-08T09:15:24;12.10;87.40
75451;DHT22;64029;48.244;9.188;2023-10-08T09:17:52;12.30;87.30
75451;DHT22;64029;48.244;9.188;2023-10-08T09:20:19;12.40;87.30
75451;DHT22;64029;48.244;9.188;2023-10-08T09:23:05;12.50;88.40
75451;DHT22;64029;48.244;9.188;2023-10-08T09:25:33;12.80;88.90
75451;DHT22;64029;48.244;9.188;2023-10-08T09:28:02;13.00;87.90
75451;DHT22;64029;48.244;9.188;2023-10-08T09:30:33;13.20;86.60
75451;DHT22;64029;48.244;9.188;2023-10-08T09:33:04;13.50;86.20
75451;DHT22;64029;48.244;9.188;2023-10-08T09:35:32;13.80;80.70
75451;DHT22;64029;48.244;9.188;2023-10-08T09:37:59;14.10;76.80
75451;DHT22;64029;48.244;9.188;2023-10-08T09:40:26;14.50;74.50
75451;DHT22;64029;48.244;9.188;2023-10-08T09:42:55;14.40;73.70
75451;DHT22;64029;48.244;9.188;2023-10-08T09:45:23;14.60;71.70
75451;DHT22;64029;48.244;9.188;2023-10-08T09:47:52;15.00;69.40
75451;DHT22;64029;48.244;9.188;2023-10-08T09:50:22;14.90;69.00
75451;DHT22;64029;48.244;9.188;2023-10-08T09:52:58;15.00;67.00
75451;DHT22;64029;48.244;9.188;2023-10-08T09:55:28;15.00;67.10
75451;DHT22;64029;48.244;9.188;2023-10-08T09:57:55;15.40;65.50
75451;DHT22;64029;48.244;9.188;2023-10-08T10:00:25;15.40;64.90
75451;DHT22;64029;48.244;9.188;2023-10-08T10:02:58;15.40;64.40
75451;DHT22;64029;48.244;9.188;2023-10-08T10:05:29;15.50;64.10
75451;DHT22;64029;48.244;9.188;2023-10-08T10:07:57;15.60;63.90
75451;DHT22;64029;48.244;9.188;2023-10-08T10:10:28;15.70;62.90
75451;DHT22;64029;48.244;9.188;2023-10-08T10:12:59;15.90;62.10
75451;DHT22;64029;48.244;9.188;2023-10-08T10:15:28;15.80;62.40
75451;DHT22;64029;48.244;9.188;2023-10-08T10:17:59;15.90;62.80
75451;DHT22;64029;48.244;9.188;2023-10-08T10:20:39;15.90;61.60
75451;DHT22;64029;48.244;9.188;2023-10-08T10:23:37;16.30;61.20
75451;DHT22;64029;48.244;9.188;2023-10-08T10:26:21;16.50;59.80
75451;DHT22;64029;48.244;9.188;2023-10-08T10:29:22;16.60;59.20
75451;DHT22;64029;48.244;9.188;2023-10-08T10:31:53;16.60;59.90
75451;DHT22;64029;48.244;9.188;2023-10-08T10:34:23;16.70;59.70
75451;DHT22;64029;48.244;9.188;2023-10-08T10:36:54;16.70;59.80
75451;DHT22;64029;48.244;9.188;2023-10-08T10:39:28;16.80;58.40
75451;DHT22;64029;48.244;9.188;2023-10-08T10:41:58;16.80;59.30
75451;DHT22;64029;48.244;9.188;2023-10-08T10:44:27;16.90;59.40
75451;DHT22;64029;48.244;9.188;2023-10-08T10:46:57;17.00;59.10
75451;DHT22;64029;48.244;9.188;2023-10-08T10:49:47;17.40;58.00
75451;DHT22;64029;48.244;9.188;2023-10-08T10:52:20;17.40;58.20
75451;DHT22;64029;48.244;9.188;2023-10-08T10:54:59;17.30;59.20
75451;DHT22;64029;48.244;9.188;2023-10-08T10:57:31;17.30;58.90
75451;DHT22;64029;48.244;9.188;2023-10-08T11:00:04;17.30;58.70
75451;DHT22;64029;48.244;9.188;2023-10-08T11:02:59;17.50;59.00
75451;DHT22;64029;48.244;9.188;2023-10-08T11:05:28;17.60;57.40
75451;DHT22;64029;48.244;9.188;2023-10-08T11:07:57;17.70;57.60
75451;DHT22;64029;48.244;9.188;2023-10-08T11:10:31;17.80;57.80
75451;DHT22;64029;48.244;9.188;2023-10-08T11:12:58;17.70;58.50
75451;DHT22;64029;48.244;9.188;2023-10-08T11:15:26;17.80;57.70
75451;DHT22;64029;48.244;9.188;2023-10-08T11:18:07;18.00;57.50
75451;DHT22;64029;48.244;9.188;2023-10-08T11:20:37;18.10;57.90
75451;DHT22;64029;48.244;9.188;2023-10-08T11:23:05;18.20;56.90
75451;DHT22;64029;48.244;9.188;2023-10-08T11:25:52;18.20;55.30
75451;DHT22;64029;48.244;9.188;2023-10-08T11:28:19;18.40;56.40
75451;DHT22;64029;48.244;9.188;2023-10-08T11:30:48;18.30;57.20
75451;DHT22;64029;48.244;9.188;2023-10-08T11:33:19;18.20;56.60
75451;DHT22;64029;48.244;9.188;2023-10-08T11:36:00;18.30;56.90
75451;DHT22;64029;48.244;9.188;2023-10-08T11:38:37;18.40;56.20
75451;DHT22;64029;48.244;9.188;2023-10-08T11:41:10;18.60;55.10
75451;DHT22;64029;48.244;9.188;2023-10-08T11:43:47;18.50;55.60
75451;DHT22;64029;48.244;9.188;2023-10-08T11:46:20;18.50;56.80
75451;DHT22;64029;48.244;9.188;2023-10-08T11:48:48;18.70;55.40
75451;DHT22;64029;48.244;9.188;2023-10-08T11:51:16;18.70;55.00
75451;DHT22;64029;48.244;9.188;2023-10-08T11:53:43;18.80;54.70
75451;DHT22;64029;48.244;9.188;2023-10-08T11:56:11;18.70;56.30
75451;DHT22;64029;48.244;9.188;2023-10-08T11:58:39;18.70;55.30
75451;DHT22;64029;48.244;9.188;2023-10-08T12:01:10;18.70;56.60
75451;DHT22;64029;48.244;9.188;2023-10-08T12:03:41;18.90;54.70
75451;DHT22;64029;48.244;9.188;2023-10-08T12:06:10;18.90;55.90
75451;DHT22;64029;48.244;9.188;2023-10-08T12:11:44;18.90;56.10
75451;DHT22;64029;48.244;9.188;2023-10-08T12:14:12;19.00;54.90
75451;DHT22;64029;48.244;9.188;2023-10-08T12:16:40;19.00;53.90
75451;DHT22;64029;48.244;9.188;2023-10-08T12:19:07;19.10;53.80
75451;DHT22;64029;48.244;9.188;2023-10-08T12:21:43;19.00;54.80
75451;DHT22;64029;48.244;9.188;2023-10-08T12:24:11;19.00;54.50
75451;DHT22;64029;48.244;9.188;2023-10-08T12:26:39;19.00;55.20
75451;DHT22;64029;48.244;9.188;2023-10-08T12:29:11;19.00;54.80
75451;DHT22;64029;48.244;9.188;2023-10-08T12:31:39;19.00;54.80
75451;DHT22;64029;48.244;9.188;2023-10-08T12:34:06;19.10;55.00
75451;DHT22;64029;48.244;9.188;2023-10-08T12:36:37;19.20;54.30
75451;DHT22;64029;48.244;9.188;2023-10-08T12:39:05;19.20;54.20
75451;DHT22;64029;48.244;9.188;2023-10-08T12:41:40;19.20;54.50
75451;DHT22;64029;48.244;9.188;2023-10-08T12:44:09;19.20;53.90
75451;DHT22;64029;48.244;9.188;2023-10-08T12:46:36;19.30;53.20
75451;DHT22;64029;48.244;9.188;2023-10-08T12:49:03;19.30;54.40
75451;DHT22;64029;48.244;9.188;2023-10-08T12:51:30;19.20;54.40
75451;DHT22;64029;48.244;9.188;2023-10-08T12:53:59;19.30;54.40
75451;DHT22;64029;48.244;9.188;2023-10-08T12:56:34;19.30;54.70
75451;DHT22;64029;48.244;9.188;2023-10-08T12:59:10;19.40;54.10
75451;DHT22;64029;48.244;9.188;2023-10-08T13:01:46;19.50;53.30
75451;DHT22;64029;48.244;9.188;2023-10-08T13:04:16;19.40;54.20
75451;DHT22;64029;48.244;9.188;2023-10-08T13:06:51;19.40;54.60
75451;DHT22;64029;48.244;9.188;2023-10-08T13:09:22;19.40;53.40
75451;DHT22;64029;48.244;9.188;2023-10-08T13:11:50;19.40;53.40
75451;DHT22;64029;48.244;9.188;2023-10-08T13:14:17;19.40;54.30
75451;DHT22;64029;48.244;9.188;2023-10-08T13:16:44;19.60;53.30
75451;DHT22;64029;48.244;9.188;2023-10-08T13:19:14;19.40;54.10
75451;DHT22;64029;48.244;9.188;2023-10-08T13:21:41;19.40;55.00
75451;DHT22;64029;48.244;9.188;2023-10-08T13:24:09;19.30;56.00
75451;DHT22;64029;48.244;9.188;2023-10-08T13:26:37;19.30;56.80
75451;DHT22;64029;48.244;9.188;2023-10-08T13:29:06;19.30;57.70
75451;DHT22;64029;48.244;9.188;2023-10-08T13:31:34;19.30;58.40
75451;DHT22;64029;48.244;9.188;2023-10-08T13:34:02;19.30;59.40
75451;DHT22;64029;48.244;9.188;2023-10-08T13:36:34;19.20;59.40
75451;DHT22;64029;48.244;9.188;2023-10-08T13:39:03;19.20;59.80
75451;DHT22;64029;48.244;9.188;2023-10-08T13:41:34;19.20;60.20
75451;DHT22;64029;48.244;9.188;2023-10-08T13:44:05;19.20;60.60
75451;DHT22;64029;48.244;9.188;2023-10-08T13:46:32;19.10;61.00
75451;DHT22;64029;48.244;9.188;2023-10-08T13:49:02;19.10;61.40
75451;DHT22;64029;48.244;9.188;2023-10-08T13:51:31;19.10;61.50
75451;DHT22;64029;48.244;9.188;2023-10-08T13:54:00;19.10;61.80
75451;DHT22;64029;48.244;9.188;2023-10-08T13:56:32;19.00;61.90
75451;DHT22;64029;48.244;9.188;2023-10-08T13:58:59;19.00;62.00
75451;DHT22;64029;48.244;9.188;2023-10-08T14:01:39;19.10;61.80
75451;DHT22;64029;48.244;9.188;2023-10-08T14:04:09;19.10;61.20
75451;DHT22;64029;48.244;9.188;2023-10-08T14:06:37;19.10;61.00
75451;DHT22;64029;48.244;9.188;2023-10-08T14:09:06;19.10;60.00
75451;DHT22;64029;48.244;9.188;2023-10-08T14:11:38;19.10;59.80
75451;DHT22;64029;48.244;9.188;2023-10-08T14:14:05;19.10;59.50
75451;DHT22;64029;48.244;9.188;2023-10-08T14:16:38;19.20;58.50
75451;DHT22;64029;48.244;9.188;2023-10-08T14:19:08;19.20;59.30
75451;DHT22;64029;48.244;9.188;2023-10-08T14:21:38;19.20;57.90
75451;DHT22;64029;48.244;9.188;2023-10-08T14:24:15;19.30;57.30
75451;DHT22;64029;48.244;9.188;2023-10-08T14:26:42;19.30;57.70
75451;DHT22;64029;48.244;9.188;2023-10-08T14:29:09;19.40;57.20
75451;DHT22;64029;48.244;9.188;2023-10-08T14:31:42;19.50;57.10
75451;DHT22;64029;48.244;9.188;2023-10-08T14:34:14;19.50;56.50
75451;DHT22;64029;48.244;9.188;2023-10-08T14:37:07;19.50;56.20
75451;DHT22;64029;48.244;9.188;2023-10-08T14:39:51;19.50;56.80
75451;DHT22;64029;48.244;9.188;2023-10-08T14:42:35;19.60;55.30
75451;DHT22;64029;48.244;9.188;2023-10-08T14:45:22;19.60;54.80
75451;DHT22;64029;48.244;9.188;2023-10-08T14:47:54;19.70;54.00
75451;DHT22;64029;48.244;9.188;2023-10-08T14:50:21;19.70;53.50
75451;DHT22;64029;48.244;9.188;2023-10-08T14:52:48;19.80;53.50
75451;DHT22;64029;48.244;9.188;2023-10-08T14:55:15;19.70;54.30
75451;DHT22;64029;48.244;9.188;2023-10-08T14:57:42;19.70;53.90
75451;DHT22;64029;48.244;9.188;2023-10-08T15:00:10;19.70;53.90
75451;DHT22;64029;48.244;9.188;2023-10-08T15:02:37;19.70;53.80
75451;DHT22;64029;48.244;9.188;2023-10-08T15:05:06;19.70;53.90
75451;DHT22;64029;48.244;9.188;2023-10-08T15:07:34;19.70;53.50
75451;DHT22;64029;48.244;9.188;2023-10-08T15:10:01;19.90;51.10
75451;DHT22;64029;48.244;9.188;2023-10-08T15:12:28;19.90;53.10
75451;DHT22;64029;48.244;9.188;2023-10-08T15:15:00;19.90;53.50
75451;DHT22;64029;48.244;9.188;2023-10-08T15:17:38;19.90;53.40
75451;DHT22;64029;48.244;9.188;2023-10-08T15:20:08;19.90;53.40
75451;DHT22;64029;48.244;9.188;2023-10-08T15:22:40;19.90;53.30
75451;DHT22;64029;48.244;9.188;2023-10-08T15:25:08;19.80;53.80
75451;DHT22;64029;48.244;9.188;2023-10-08T15:27:36;19.80;52.30
75451;DHT22;64029;48.244;9.188;2023-10-08T15:30:07;19.90;51.70
75451;DHT22;64029;48.244;9.188;2023-10-08T15:32:36;19.90;51.80
75451;DHT22;64029;48.244;9.188;2023-10-08T15:35:07;19.90;52.00
75451;DHT22;64029;48.244;9.188;2023-10-08T15:37:35;19.90;52.70
75451;DHT22;64029;48.244;9.188;2023-10-08T15:40:02;19.90;53.60
75451;DHT22;64029;48.244;9.188;2023-10-08T15:42:32;19.80;54.70
75451;DHT22;64029;48.244;9.188;2023-10-08T15:44:59;19.70;55.10
75451;DHT22;64029;48.244;9.188;2023-10-08T15:47:27;19.70;55.40
75451;DHT22;64029;48.244;9.188;2023-10-08T15:49:54;19.60;55.80
75451;DHT22;64029;48.244;9.188;2023-10-08T15:52:22;19.60;56.00
75451;DHT22;64029;48.244;9.188;2023-10-08T15:54:49;19.60;56.40
75451;DHT22;64029;48.244;9.188;2023-10-08T15:57:16;19.60;56.40
75451;DHT22;64029;48.244;9.188;2023-10-08T15:59:43;19.50;57.10
75451;DHT22;64029;48.244;9.188;2023-10-08T16:02:10;19.50;57.50
75451;DHT22;64029;48.244;9.188;2023-10-08T16:04:37;19.40;57.60
75451;DHT22;64029;48.244;9.188;2023-10-08T16:07:05;19.40;58.10
75451;DHT22;64029;48.244;9.188;2023-10-08T16:09:33;19.30;58.30
75451;DHT22;64029;48.244;9.188;2023-10-08T16:12:00;19.20;58.60